Time;durP1;ratioP1;P1;durP2;ratioP2;P2;SDS_P1;SDS_P2;PMS_P1;PMS_P2;Temp;Humidity;BMP_temperature;BMP_pressure;BME280_temperature;BME280_humidity;BME280_pressure;Samples;Min_cycle;Max_cycle;Signal;HPM_P1;HPM_P2
2021/09/13 00:00:15;;;;;;;2.72;1.20;;;;;;;27.57;37.15;96787.19;4980431;28;20030;-29
2021/09/13 00:02:40;;;;;;;1.38;1.17;;;;;;;27.58;37.07;96783.59;4970298;28;20054;-32
2021/09/13 00:05:06;;;;;;;2.08;1.13;;;;;;;27.57;37.10;96784.56;4979238;28;20902;-30
2021/09/13 00:07:32;;;;;;;1.52;1.30;;;;;;;27.60;37.09;96787.00;4960322;28;20034;-31
2021/09/13 00:09:57;;;;;;;1.25;0.98;;;;;;;27.60;37.09;96780.88;4978576;28;20052;-28
2021/09/13 00:12:23;;;;;;;1.08;0.90;;;;;;;27.60;37.00;96773.84;4940659;28;20046;-28
2021/09/13 00:14:48;;;;;;;2.63;1.08;;;;;;;27.61;37.06;96777.38;4984032;28;20064;-29
2021/09/13 00:17:14;;;;;;;1.58;1.17;;;;;;;27.60;37.09;96776.47;4958310;28;20026;-32
2021/09/13 00:19:39;;;;;;;1.08;0.90;;;;;;;27.62;37.08;96782.50;4980267;28;20026;-30
2021/09/13 00:22:05;;;;;;;3.72;1.10;;;;;;;27.63;37.06;96781.59;4956612;28;20026;-29
2021/09/13 00:24:30;;;;;;;1.30;1.15;;;;;;;27.63;37.18;96770.22;4979259;28;20246;-29
2021/09/13 00:26:56;;;;;;;2.03;1.17;;;;;;;27.63;37.06;96778.97;4983787;28;20484;-29
2021/09/13 00:29:21;;;;;;;1.75;1.40;;;;;;;27.63;36.98;96768.44;4980956;28;20663;-29
2021/09/13 00:31:47;;;;;;;2.60;1.15;;;;;;;27.63;36.87;96771.06;4978477;28;20030;-29
2021/09/13 00:34:13;;;;;;;3.17;1.08;;;;;;;27.64;36.96;96770.13;4985958;28;20118;-27
2021/09/13 00:36:38;;;;;;;2.55;1.35;;;;;;;27.65;36.99;96769.19;4978592;28;20030;-32
2021/09/13 00:39:04;;;;;;;2.30;0.90;;;;;;;27.67;37.03;96765.59;4981491;28;20041;-29
2021/09/13 00:41:29;;;;;;;2.13;1.10;;;;;;;27.68;36.87;96767.31;4977778;28;20965;-28
2021/09/13 00:43:54;;;;;;;3.00;1.20;;;;;;;27.68;37.12;96773.41;4986156;28;20459;-27
2021/09/13 00:46:20;;;;;;;3.70;1.20;;;;;;;27.68;36.96;96769.94;4981237;28;22967;-31
2021/09/13 00:48:45;;;;;;;1.77;1.00;;;;;;;27.68;36.95;96772.56;4974570;28;20026;-29
2021/09/13 00:51:11;;;;;;;2.88;1.20;;;;;;;27.68;37.04;96767.31;4980171;28;20699;-28
2021/09/13 00:53:36;;;;;;;1.65;1.20;;;;;;;27.68;37.02;96768.13;4971696;28;20033;-30
2021/09/13 00:56:02;;;;;;;1.00;1.00;;;;;;;27.70;36.89;96766.28;4982331;28;20030;-29
2021/09/13 00:58:28;;;;;;;2.45;1.27;;;;;;;27.70;36.98;96766.28;4978627;28;20117;-28
2021/09/13 01:00:54;;;;;;;1.30;1.20;;;;;;;27.70;36.91;96765.41;4973787;28;20188;-27
2021/09/13 01:03:19;;;;;;;1.20;1.10;;;;;;;27.71;37.41;96767.09;4979712;28;20558;-29
2021/09/13 01:05:44;;;;;;;2.67;1.05;;;;;;;27.70;36.86;96762.78;4983605;28;20033;-30
2021/09/13 01:08:10;;;;;;;1.45;1.02;;;;;;;27.70;37.07;96753.13;4978075;28;20034;-27
2021/09/13 01:10:35;;;;;;;2.10;1.27;;;;;;;27.71;36.96;96761.84;4981110;28;20089;-28
2021/09/13 01:13:01;;;;;;;3.53;1.10;;;;;;;27.72;36.96;96751.22;4974649;28;20022;-31
2021/09/13 01:15:26;;;;;;;1.00;0.80;;;;;;;27.72;36.87;96753.03;4977933;28;20033;-28
2021/09/13 01:17:52;;;;;;;3.42;1.20;;;;;;;27.73;37.04;96762.59;4978484;28;20684;-28
2021/09/13 01:20:17;;;;;;;1.58;1.23;;;;;;;27.74;36.94;96759.03;4978341;28;20648;-29
2021/09/13 01:22:43;;;;;;;2.00;1.00;;;;;;;27.74;36.93;96759.03;4975621;28;20038;-29
2021/09/13 01:25:09;;;;;;;1.77;1.00;;;;;;;27.73;37.06;96754.72;4981592;28;20067;-27
2021/09/13 01:27:34;;;;;;;2.17;1.10;;;;;;;27.75;36.85;96763.34;4980446;28;20070;-29
2021/09/13 01:30:00;;;;;;;2.08;1.20;;;;;;;27.75;36.95;96753.66;4978807;28;20154;-29
2021/09/13 01:32:25;;;;;;;2.10;1.02;;;;;;;27.75;37.00;96748.41;4979210;28;20038;-30
2021/09/13 01:34:50;;;;;;;1.13;0.88;;;;;;;27.75;37.01;96755.44;4980316;28;20409;-31
2021/09/13 01:37:16;;;;;;;1.42;0.80;;;;;;;27.77;36.84;96757.03;4973335;28;20037;-30
2021/09/13 01:39:41;;;;;;;1.73;1.30;;;;;;;27.76;37.09;96746.59;4978314;28;20110;-32
2021/09/13 01:42:07;;;;;;;1.98;0.80;;;;;;;27.77;36.99;96748.31;4975873;28;20022;-29
2021/09/13 01:44:32;;;;;;;1.25;1.15;;;;;;;27.78;37.07;96752.63;4976156;28;20030;-29
2021/09/13 01:46:58;;;;;;;1.67;0.85;;;;;;;27.77;36.99;96745.69;4972710;28;20034;-28
2021/09/13 01:49:23;;;;;;;1.30;0.88;;;;;;;27.78;36.92;96744.72;4977900;28;20046;-28
2021/09/13 01:51:48;;;;;;;1.55;0.90;;;;;;;27.78;36.91;96750.00;4974124;28;20030;-28
2021/09/13 01:54:14;;;;;;;1.77;1.00;;;;;;;27.78;36.94;96747.38;4976328;28;20060;-29
2021/09/13 01:56:39;;;;;;;1.63;1.02;;;;;;;27.78;36.93;96737.69;4970092;28;20285;-29
2021/09/13 01:59:05;;;;;;;1.55;1.00;;;;;;;27.79;36.94;96738.50;4975580;28;20057;-29
2021/09/13 02:01:30;;;;;;;1.00;0.95;;;;;;;27.79;36.95;96746.41;4980084;28;20509;-30
2021/09/13 02:03:56;;;;;;;1.00;0.80;;;;;;;27.78;36.91;96740.31;4974096;28;20041;-27
2021/09/13 02:06:21;;;;;;;1.02;0.90;;;;;;;27.80;37.06;96745.47;4977392;28;20033;-31
2021/09/13 02:08:46;;;;;;;1.40;0.90;;;;;;;27.80;36.94;96739.38;4975412;28;21977;-28
2021/09/13 02:11:12;;;;;;;0.82;0.80;;;;;;;27.80;36.97;96728.84;4977785;28;20084;-28
2021/09/13 02:13:37;;;;;;;1.02;0.98;;;;;;;27.81;36.90;96730.53;4976663;28;19925;-30
2021/09/13 02:16:04;;;;;;;1.30;0.93;;;;;;;27.81;36.80;96725.25;4977678;28;20419;-28
2021/09/13 02:18:29;;;;;;;1.10;0.93;;;;;;;27.76;36.88;96718.50;4975232;28;20504;-31
2021/09/13 02:20:55;;;;;;;0.77;0.77;;;;;;;27.81;37.02;96725.25;4970958;28;20030;-29
2021/09/13 02:23:20;;;;;;;1.50;1.05;;;;;;;27.81;36.94;96731.38;4976077;28;20381;-28
2021/09/13 02:25:45;;;;;;;1.25;0.95;;;;;;;27.81;36.88;96725.25;4979990;28;20050;-32
2021/09/13 02:28:11;;;;;;;0.95;0.93;;;;;;;27.80;36.89;96727.03;4974302;28;20084;-29
2021/09/13 02:30:37;;;;;;;1.17;0.90;;;;;;;27.81;36.91;96726.13;4982075;28;20100;-29
2021/09/13 02:33:02;;;;;;;2.47;1.20;;;;;;;27.82;36.79;96721.69;4974126;28;20026;-29
2021/09/13 02:35:28;;;;;;;0.75;0.73;;;;;;;27.81;37.12;96726.13;4973863;28;20272;-28
2021/09/13 02:37:53;;;;;;;1.35;0.80;;;;;;;27.81;37.00;96726.13;4975101;28;20034;-28
2021/09/13 02:40:19;;;;;;;2.13;0.80;;;;;;;27.83;36.88;96726.00;4981190;28;20037;-30
2021/09/13 02:42:44;;;;;;;1.73;0.90;;;;;;;27.82;36.81;96722.53;4980640;28;20981;-29
2021/09/13 02:45:10;;;;;;;1.38;0.95;;;;;;;27.82;37.02;96722.53;4978878;28;20065;-32
2021/09/13 02:47:35;;;;;;;2.65;1.00;;;;;;;27.81;36.93;96714.72;4982842;28;20030;-32
2021/09/13 02:50:01;;;;;;;2.58;1.05;;;;;;;27.82;36.98;96717.28;4980969;28;20169;-31
2021/09/13 02:52:27;;;;;;;2.15;1.00;;;;;;;27.81;36.95;96720.00;4976981;28;20519;-32
2021/09/13 02:54:52;;;;;;;1.52;0.93;;;;;;;27.82;36.77;96721.69;4980057;28;20041;-27
2021/09/13 02:57:17;;;;;;;3.20;0.90;;;;;;;27.81;36.98;96718.22;4975152;28;20026;-29
2021/09/13 02:59:44;;;;;;;1.45;1.15;;;;;;;27.82;36.77;96719.03;4979749;28;20038;-30
2021/09/13 03:02:09;;;;;;;5.53;1.00;;;;;;;27.84;37.05;96732.97;4978035;28;20030;-28
2021/09/13 03:04:35;;;;;;;1.30;1.10;;;;;;;27.84;36.93;96732.97;4983433;28;20031;-28
2021/09/13 03:07:00;;;;;;;0.85;0.63;;;;;;;27.83;36.98;96726.84;4983330;28;20421;-30
2021/09/13 03:09:26;;;;;;;2.78;1.23;;;;;;;27.84;37.02;96730.34;4979327;28;20261;-28
2021/09/13 03:11:51;;;;;;;0.95;0.70;;;;;;;27.85;36.78;96729.38;4981994;28;20026;-29
2021/09/13 03:14:17;;;;;;;5.10;0.98;;;;;;;27.84;36.85;96736.44;4983714;28;20034;-33
2021/09/13 03:16:42;;;;;;;1.45;0.80;;;;;;;27.86;36.90;96729.31;4982766;28;20095;-30
2021/09/13 03:19:07;;;;;;;1.10;1.00;;;;;;;27.84;36.87;96731.16;4978730;28;20428;-29
2021/09/13 03:21:33;;;;;;;0.95;0.80;;;;;;;27.85;36.78;96727.63;4985307;28;20034;-28
2021/09/13 03:23:58;;;;;;;1.63;1.00;;;;;;;27.85;36.78;96727.63;4976696;28;20034;-28
2021/09/13 03:26:24;;;;;;;1.95;0.90;;;;;;;27.85;37.08;96732.88;4974691;28;20026;-30
2021/09/13 03:28:49;;;;;;;0.98;0.90;;;;;;;27.85;36.91;96722.34;4982665;28;20030;-28
2021/09/13 03:31:15;;;;;;;1.20;0.88;;;;;;;27.85;36.74;96727.63;4978609;28;21506;-28
2021/09/13 03:33:40;;;;;;;2.05;0.90;;;;;;;27.86;36.78;96731.06;4983119;28;20043;-30
2021/09/13 03:36:05;;;;;;;1.15;0.82;;;;;;;27.86;36.82;96724.03;4983491;28;20026;-28
2021/09/13 03:38:32;;;;;;;1.10;0.90;;;;;;;27.86;36.83;96723.19;4984313;28;20493;-30
2021/09/13 03:40:58;;;;;;;1.25;0.90;;;;;;;27.86;36.95;96724.03;4982193;28;20018;-30
2021/09/13 03:43:23;;;;;;;1.52;0.98;;;;;;;27.86;36.86;96718.78;4983255;28;20656;-29
2021/09/13 03:45:49;;;;;;;3.40;0.88;;;;;;;27.85;36.96;96717.09;4982924;28;20037;-28
2021/09/13 03:48:14;;;;;;;1.27;0.88;;;;;;;27.86;36.83;96717.91;4980734;28;20026;-29
2021/09/13 03:50:40;;;;;;;0.85;0.82;;;;;;;27.86;36.84;96717.91;4979009;28;20585;-30
2021/09/13 03:53:05;;;;;;;2.13;0.90;;;;;;;27.86;36.78;96710.00;4981852;28;20037;-28
2021/09/13 03:55:32;;;;;;;1.52;0.82;;;;;;;27.86;36.75;96710.88;4976698;28;20041;-29
2021/09/13 03:57:57;;;;;;;0.88;0.80;;;;;;;27.82;36.91;96704.09;4978543;28;20026;-29
2021/09/13 04:00:23;;;;;;;1.10;0.65;;;;;;;27.86;36.85;96713.50;4979691;28;20038;-30
2021/09/13 04:02:49;;;;;;;2.05;1.00;;;;;;;27.86;36.64;96713.50;4980473;28;20026;-30
2021/09/13 04:05:19;;;;;;;2.75;0.95;;;;;;;27.86;36.86;96707.38;4982696;28;20390;-30
2021/09/13 04:12:58;;;;;;;1.45;0.85;;;;;;;27.86;36.74;96695.06;4982553;28;20049;-30
2021/09/13 04:15:24;;;;;;;2.35;1.00;;;;;;;27.86;36.70;96691.56;4983112;28;20034;-32
2021/09/13 04:17:49;;;;;;;1.08;0.73;;;;;;;27.85;36.75;96703.91;4979327;28;20474;-28
2021/09/13 04:20:15;;;;;;;0.77;0.77;;;;;;;27.86;36.76;96702.97;4978503;28;20035;-29
2021/09/13 04:22:40;;;;;;;1.77;1.20;;;;;;;27.86;36.80;96707.38;4979626;28;20026;-28
2021/09/13 04:25:06;;;;;;;3.05;1.10;;;;;;;27.85;36.82;96706.56;4984425;28;20549;-32
2021/09/13 04:27:31;;;;;;;1.88;1.20;;;;;;;27.86;36.89;96710.00;4978789;28;20027;-29
2021/09/13 04:29:57;;;;;;;1.20;0.85;;;;;;;27.86;36.77;96704.75;4982087;28;20563;-29
2021/09/13 04:32:22;;;;;;;1.38;0.90;;;;;;;27.85;36.73;96701.28;4981156;28;20138;-29
2021/09/13 04:34:48;;;;;;;1.75;1.30;;;;;;;27.87;36.58;96709.06;4981033;28;20365;-28
2021/09/13 04:37:13;;;;;;;0.95;0.80;;;;;;;27.86;36.75;96708.22;4980119;28;22352;-29
2021/09/13 04:39:39;;;;;;;0.65;0.65;;;;;;;27.86;36.91;96702.97;4984501;28;20030;-28
2021/09/13 04:42:04;;;;;;;2.97;0.80;;;;;;;27.86;36.80;96702.97;4976465;28;20034;-30
2021/09/13 04:44:30;;;;;;;0.82;0.82;;;;;;;27.86;36.53;96702.97;4984454;28;20033;-30
2021/09/13 04:46:55;;;;;;;0.93;0.82;;;;;;;27.87;36.66;96698.53;4981648;28;20022;-29
2021/09/13 04:49:23;;;;;;;1.38;0.93;;;;;;;27.86;36.71;96700.34;4975244;28;20034;-28
2021/09/13 04:51:49;;;;;;;1.35;0.77;;;;;;;27.87;36.53;96695.91;4975685;28;20049;-29
2021/09/13 04:54:14;;;;;;;1.50;1.00;;;;;;;27.87;36.68;96699.38;4978907;28;20038;-30
2021/09/13 04:56:40;;;;;;;1.23;0.80;;;;;;;27.86;36.66;96702.97;4973661;28;20026;-30
2021/09/13 04:59:05;;;;;;;0.98;0.80;;;;;;;27.86;36.47;96702.97;4979609;28;20045;-29
2021/09/13 05:01:30;;;;;;;1.85;0.98;;;;;;;27.87;36.75;96703.78;4975170;28;20121;-29
2021/09/13 05:03:56;;;;;;;2.55;1.17;;;;;;;27.86;37.01;96702.97;4978565;28;20037;-28
2021/09/13 05:06:21;;;;;;;1.20;1.10;;;;;;;27.86;36.75;96708.22;4976071;28;20579;-28
2021/09/13 05:08:47;;;;;;;2.05;0.93;;;;;;;27.85;36.85;96706.56;4981877;28;20088;-29
2021/09/13 05:11:12;;;;;;;2.95;1.20;;;;;;;27.87;36.83;96709.06;4979205;28;20057;-28
2021/09/13 05:13:38;;;;;;;1.77;1.00;;;;;;;27.87;36.74;96715.19;4980602;28;20034;-28
2021/09/13 05:16:04;;;;;;;2.78;1.08;;;;;;;27.86;36.85;96707.38;4975916;28;20065;-30
2021/09/13 05:18:29;;;;;;;0.82;0.70;;;;;;;27.86;36.73;96708.22;4978902;28;20504;-28
2021/09/13 05:20:55;;;;;;;1.10;0.93;;;;;;;27.87;36.78;96709.06;4979824;28;20049;-29
2021/09/13 05:23:20;;;;;;;1.35;1.00;;;;;;;27.86;36.78;96708.22;4976212;28;20018;-29
2021/09/13 05:25:45;;;;;;;1.27;0.93;;;;;;;27.87;36.65;96707.28;4977098;28;20030;-31
2021/09/13 05:28:11;;;;;;;2.55;0.90;;;;;;;27.85;36.70;96711.81;4983216;28;20464;-30
2021/09/13 05:30:36;;;;;;;0.95;0.82;;;;;;;27.88;36.82;96716.03;4976825;28;20511;-32
2021/09/13 05:33:02;;;;;;;1.10;1.00;;;;;;;27.86;36.62;96718.78;4975611;28;20033;-28
2021/09/13 05:35:27;;;;;;;0.88;0.75;;;;;;;27.87;36.67;96725.72;4984320;28;20412;-30
2021/09/13 05:37:52;;;;;;;1.10;0.98;;;;;;;27.87;36.50;96719.59;4979245;28;20049;-30
2021/09/13 05:40:18;;;;;;;2.95;1.10;;;;;;;27.87;36.50;96720.44;4985568;28;20026;-29
2021/09/13 05:42:43;;;;;;;0.95;0.80;;;;;;;27.86;36.66;96726.66;4979449;28;20030;-31
2021/09/13 05:45:09;;;;;;;1.67;0.82;;;;;;;27.87;36.58;96717.81;4974874;28;20034;-28
2021/09/13 05:47:35;;;;;;;1.20;0.80;;;;;;;27.86;36.65;96718.78;4978597;28;20034;-27
2021/09/13 05:50:00;;;;;;;3.13;1.00;;;;;;;27.87;36.79;96725.72;4976969;28;20034;-30
2021/09/13 05:52:26;;;;;;;1.38;1.00;;;;;;;27.86;36.66;96729.31;4979042;28;20395;-32
2021/09/13 05:54:51;;;;;;;1.65;1.10;;;;;;;27.86;36.66;96729.31;4980958;28;20038;-28
2021/09/13 05:57:17;;;;;;;0.82;0.80;;;;;;;27.88;36.64;96727.41;4974311;28;20354;-29
2021/09/13 05:59:45;;;;;;;4.53;1.10;;;;;;;27.86;36.52;96737.19;4978180;28;20507;-29
2021/09/13 06:02:10;;;;;;;2.03;1.10;;;;;;;27.87;36.66;96724.84;4979051;28;20092;-26
2021/09/13 06:04:37;;;;;;;1.88;1.00;;;;;;;27.86;36.68;96724.03;4966489;28;21689;-29
2021/09/13 06:07:04;;;;;;;2.53;1.55;;;;;;;27.86;36.63;96726.66;4976785;28;20038;-29
2021/09/13 06:09:29;;;;;;;6.47;2.17;;;;;;;27.86;36.57;96724.03;4975661;28;20036;-29
2021/09/13 06:11:55;;;;;;;8.77;2.10;;;;;;;27.85;36.70;96722.34;4971348;28;20045;-27
2021/09/13 06:14:20;;;;;;;4.90;2.10;;;;;;;27.85;36.59;96727.63;4976703;28;20033;-29
2021/09/13 06:16:45;;;;;;;4.82;2.38;;;;;;;27.87;36.72;96730.97;4967881;28;20047;-32
2021/09/13 06:19:11;;;;;;;7.07;2.50;;;;;;;27.87;36.63;96730.97;4973968;28;20027;-29
2021/09/13 06:21:37;;;;;;;6.03;2.67;;;;;;;27.87;36.51;96730.97;4972917;28;20038;-28
2021/09/13 06:24:02;;;;;;;10.32;2.28;;;;;;;27.88;36.82;96737.94;4989101;28;20591;-27
2021/09/13 06:26:28;;;;;;;5.43;2.25;;;;;;;27.86;36.67;96734.56;4975233;28;20121;-29
2021/09/13 06:28:53;;;;;;;7.20;2.58;;;;;;;27.85;36.52;96738.16;4975707;28;20034;-28
2021/09/13 06:31:19;;;;;;;9.23;2.30;;;;;;;27.84;36.37;96736.44;4978793;28;20028;-32
2021/09/13 06:33:44;;;;;;;8.65;2.53;;;;;;;27.82;36.35;96742.75;4978019;28;22347;-29
2021/09/13 06:36:10;;;;;;;9.85;3.08;;;;;;;27.80;36.13;96742.00;4978620;28;20041;-28
2021/09/13 06:38:35;;;;;;;11.30;3.13;;;;;;;27.76;36.10;96734.28;4976992;28;20061;-29
2021/09/13 06:41:01;;;;;;;7.13;2.72;;;;;;;27.76;36.23;96743.97;4979110;28;20030;-28
2021/09/13 06:43:28;;;;;;;4.63;2.25;;;;;;;27.75;35.97;96742.28;4981170;28;20026;-27
2021/09/13 06:46:10;;;;;;;7.53;2.60;;;;;;;27.73;36.03;96739.75;4978650;28;20049;-30
2021/09/13 06:48:38;;;;;;;8.90;3.10;;;;;;;27.72;36.01;96742.50;4978179;28;20062;-29
2021/09/13 06:51:03;;;;;;;8.38;3.05;;;;;;;27.72;36.25;96747.75;4979421;28;20561;-28
2021/09/13 06:53:28;;;;;;;8.25;3.00;;;;;;;27.71;36.17;96735.50;4976906;28;20157;-32
2021/09/13 06:55:54;;;;;;;10.15;2.50;;;;;;;27.72;36.34;96745.13;4979147;28;20633;-30
2021/09/13 06:58:19;;;;;;;6.70;2.45;;;;;;;27.71;36.52;96743.41;4977451;28;20038;-30
2021/09/13 07:00:45;;;;;;;10.95;4.40;;;;;;;27.73;36.46;96744.19;4975785;28;20034;-28
2021/09/13 07:03:14;;;;;;;8.95;4.00;;;;;;;27.74;36.41;96745.84;4978151;28;20096;-29
2021/09/13 07:05:39;;;;;;;10.43;5.28;;;;;;;27.73;36.44;96741.53;4976843;28;20275;-27
2021/09/13 07:08:05;;;;;;;13.77;3.50;;;;;;;27.73;36.42;96744.19;4993197;28;20476;-29
2021/09/13 07:10:30;;;;;;;6.95;2.90;;;;;;;27.73;36.43;96745.00;4973472;28;20038;-30
2021/09/13 07:12:56;;;;;;;6.25;3.00;;;;;;;27.75;36.66;96748.41;4978333;28;20295;-30
2021/09/13 07:15:21;;;;;;;12.13;3.28;;;;;;;27.75;36.45;96748.41;4978384;28;20033;-27
2021/09/13 07:17:46;;;;;;;7.82;3.35;;;;;;;27.77;36.57;96748.31;4978658;28;20071;-30
2021/09/13 07:20:13;;;;;;;12.18;4.53;;;;;;;27.76;36.43;96744.81;4986524;28;20038;-29
2021/09/13 07:22:38;;;;;;;23.92;4.32;;;;;;;27.77;36.71;96749.13;4984689;28;20018;-30
2021/09/13 07:25:04;;;;;;;10.30;3.25;;;;;;;27.77;36.59;96751.78;4996960;28;20152;-28
2021/09/13 07:27:29;;;;;;;18.48;4.00;;;;;;;27.78;36.61;96757.91;4980347;28;20034;-29
2021/09/13 07:29:59;;;;;;;12.77;3.85;;;;;;;27.75;36.51;96758.94;4979437;28;20037;-28
2021/09/13 07:32:25;;;;;;;14.73;4.00;;;;;;;27.69;36.26;96758.47;4980466;28;20039;-29
2021/09/13 07:34:50;;;;;;;10.63;3.70;;;;;;;27.64;36.36;96754.31;4977192;28;20034;-29
2021/09/13 07:37:15;;;;;;;12.93;3.78;;;;;;;27.61;36.40;96757.13;4977010;28;20100;-33
2021/09/13 07:39:41;;;;;;;15.27;3.80;;;;;;;27.60;36.63;96762.47;4979928;28;20026;-27
2021/09/13 07:42:06;;;;;;;11.13;4.00;;;;;;;27.58;36.47;96762.56;4977111;28;20611;-30
2021/09/13 07:44:32;;;;;;;4.97;3.13;;;;;;;27.56;36.80;96766.22;4975113;28;20038;-38
2021/09/13 07:46:57;;;;;;;7.45;3.15;;;;;;;27.52;36.59;96770.84;4969084;28;20042;-33
2021/09/13 07:49:22;;;;;;;6.72;2.90;;;;;;;27.49;36.71;96763.97;4980287;28;20086;-31
2021/09/13 07:51:48;;;;;;;7.22;3.00;;;;;;;27.48;36.78;96767.56;4977701;28;20666;-31
2021/09/13 07:54:14;;;;;;;9.40;2.90;;;;;;;27.50;36.84;96770.09;4973966;28;20440;-29
2021/09/13 07:56:40;;;;;;;3.90;2.55;;;;;;;27.54;36.78;96766.34;4975323;28;20057;-32
2021/09/13 07:59:05;;;;;;;6.05;2.70;;;;;;;27.59;36.45;96769.53;4972810;28;20500;-28
2021/09/13 08:01:31;;;;;;;6.00;2.40;;;;;;;27.65;36.09;96766.53;4974894;28;20527;-30
2021/09/13 08:03:56;;;;;;;6.78;2.80;;;;;;;27.73;36.19;96767.88;4974939;28;20108;-29
2021/09/13 08:06:22;;;;;;;3.90;2.90;;;;;;;27.81;35.68;96773.50;4974812;28;20775;-29
2021/09/13 08:08:48;;;;;;;5.80;2.63;;;;;;;27.87;35.99;96773.13;4975984;28;20064;-31
2021/09/13 08:11:13;;;;;;;6.45;2.40;;;;;;;27.90;36.03;96772.94;4979282;28;20038;-30
2021/09/13 08:13:40;;;;;;;4.60;2.45;;;;;;;28.01;35.74;96774.03;4975592;28;20060;-30
2021/09/13 08:16:06;;;;;;;6.85;2.53;;;;;;;28.07;35.49;96776.28;4975247;28;20149;-33
2021/09/13 08:18:31;;;;;;;5.57;2.55;;;;;;;28.12;35.53;96776.00;4980854;28;20029;-29
2021/09/13 08:20:57;;;;;;;4.28;2.25;;;;;;;28.15;35.53;96781.91;4975071;28;20386;-28
2021/09/13 08:23:22;;;;;;;4.03;2.40;;;;;;;28.19;35.41;96785.22;4978286;28;20033;-29
2021/09/13 08:25:47;;;;;;;7.60;2.53;;;;;;;28.22;35.32;96789.44;4977566;28;20034;-29
2021/09/13 08:28:18;;;;;;;5.88;2.30;;;;;;;28.24;35.17;96790.19;4972851;28;20052;-31
2021/09/13 08:30:43;;;;;;;9.10;3.00;;;;;;;28.24;35.28;96791.03;4973582;28;20022;-29
2021/09/13 08:33:09;;;;;;;9.23;2.83;;;;;;;28.26;35.42;96783.09;4974598;28;20041;-30
2021/09/13 08:35:34;;;;;;;9.10;2.90;;;;;;;28.26;35.32;96780.44;4979773;28;20566;-29
2021/09/13 08:38:00;;;;;;;5.53;2.85;;;;;;;28.25;35.30;96786.59;4976842;28;20065;-28
2021/09/13 08:40:26;;;;;;;5.68;2.70;;;;;;;28.21;35.47;96780.69;4979539;28;20476;-29
2021/09/13 08:42:51;;;;;;;5.78;2.72;;;;;;;28.17;35.29;96785.31;4980649;28;20037;-30
2021/09/13 08:45:28;;;;;;;10.02;2.22;;;;;;;28.16;35.51;96783.63;4986484;28;20022;-28
2021/09/13 08:48:04;;;;;;;5.13;2.95;;;;;;;28.14;35.67;96790.78;4991251;28;20058;-28
2021/09/13 08:52:58;;;;;;;5.07;3.00;;;;;;;28.08;35.67;96790.31;4979126;28;20132;-28
2021/09/13 08:55:23;;;;;;;4.45;3.15;;;;;;;28.01;35.57;96797.75;4972215;28;20720;-29
2021/09/13 08:57:51;;;;;;;4.90;2.65;;;;;;;27.92;35.43;96797.38;4972031;28;20547;-29
2021/09/13 09:00:16;;;;;;;8.23;2.63;;;;;;;27.88;35.79;96798.50;4970952;28;22596;-29
2021/09/13 09:02:42;;;;;;;6.38;2.78;;;;;;;27.84;36.11;96799.63;4966983;28;20491;-27
2021/09/13 09:05:08;;;;;;;8.55;2.60;;;;;;;27.82;36.21;96795.41;4978559;28;20101;-28
2021/09/13 09:07:50;;;;;;;3.45;2.47;;;;;;;27.81;36.19;96799.00;4976984;28;20034;-29
2021/09/13 09:10:18;;;;;;;7.78;2.40;;;;;;;27.81;36.30;96799.00;4982332;28;20306;-28
2021/09/13 09:13:07;;;;;;;4.90;1.95;;;;;;;27.81;36.32;96802.47;4976917;28;20037;-31
2021/09/13 09:15:33;;;;;;;3.75;2.13;;;;;;;27.81;36.36;96799.84;4979941;28;20024;-28
2021/09/13 09:17:59;;;;;;;6.13;2.30;;;;;;;27.81;36.40;96791.94;4981304;28;20322;-30
2021/09/13 09:20:24;;;;;;;4.90;2.50;;;;;;;27.83;36.31;96795.31;4978587;28;20149;-29
2021/09/13 09:23:03;;;;;;;4.13;2.40;;;;;;;27.83;36.51;96782.16;4977732;28;20030;-29
2021/09/13 09:25:35;;;;;;;8.80;2.75;;;;;;;27.84;36.54;96775.94;4974982;28;20030;-25
2021/09/13 09:28:04;;;;;;;4.88;2.33;;;;;;;27.86;36.65;96781.97;4978483;28;20037;-28
2021/09/13 09:30:40;;;;;;;6.43;2.55;;;;;;;27.87;36.47;96778.38;4978811;28;20019;-29
2021/09/13 09:33:13;;;;;;;3.20;2.33;;;;;;;27.87;36.62;96770.50;4973598;28;20026;-28
2021/09/13 09:35:40;;;;;;;5.18;2.53;;;;;;;27.89;36.51;96770.41;4975196;28;20054;-28
2021/09/13 09:38:05;;;;;;;5.07;2.30;;;;;;;27.89;36.71;96765.13;4971324;28;20029;-27
2021/09/13 09:40:31;;;;;;;4.55;2.38;;;;;;;27.91;36.65;96777.25;4975849;28;20568;-30
2021/09/13 09:42:56;;;;;;;7.13;2.50;;;;;;;27.92;36.67;96786.00;4973206;28;20109;-30
2021/09/13 09:45:21;;;;;;;4.80;2.47;;;;;;;27.92;36.53;96789.47;4964132;28;20041;-28
2021/09/13 09:48:05;;;;;;;4.05;2.40;;;;;;;27.94;36.62;96789.38;4974248;28;20033;-29
2021/09/13 09:50:33;;;;;;;6.10;2.03;;;;;;;27.95;36.86;96785.81;4974356;28;20026;-29
2021/09/13 09:53:17;;;;;;;4.32;2.50;;;;;;;27.95;36.63;96784.97;4959342;28;20484;-29
2021/09/13 09:55:43;;;;;;;7.47;2.30;;;;;;;27.96;36.60;96781.41;4979657;28;20471;-28
2021/09/13 09:58:10;;;;;;;2.30;1.98;;;;;;;27.96;36.72;96776.13;4977166;28;20034;-30
2021/09/13 10:00:37;;;;;;;5.82;2.08;;;;;;;27.96;36.67;96776.94;4980027;28;20030;-28
2021/09/13 10:03:02;;;;;;;4.80;2.30;;;;;;;27.97;36.84;96783.09;4977984;28;20134;-27
2021/09/13 10:05:28;;;;;;;3.13;1.90;;;;;;;27.98;36.79;96782.13;4979834;28;20607;-29
2021/09/13 10:07:54;;;;;;;3.25;2.25;;;;;;;28.00;36.87;96772.38;4973732;28;20053;-31
2021/09/13 10:10:20;;;;;;;6.53;2.03;;;;;;;28.00;36.76;96777.63;4984720;28;20034;-28
2021/09/13 10:12:47;;;;;;;4.15;2.25;;;;;;;28.01;36.82;96779.31;4985807;28;20108;-29
2021/09/13 10:15:12;;;;;;;9.77;2.15;;;;;;;28.01;36.96;96769.63;4986165;28;20117;-29
2021/09/13 10:17:37;;;;;;;6.43;2.65;;;;;;;28.03;36.81;96766.88;4983359;28;20427;-29
2021/09/13 10:20:05;;;;;;;5.85;2.15;;;;;;;28.02;37.00;96757.28;4983583;28;20042;-29
2021/09/13 10:22:31;;;;;;;10.43;2.28;;;;;;;28.03;37.16;96758.97;5000615;28;20026;-34
2021/09/13 10:24:56;;;;;;;8.30;2.15;;;;;;;28.05;37.23;96749.22;4987907;28;20995;-31
2021/09/13 10:27:21;;;;;;;9.07;2.65;;;;;;;28.03;37.18;96745.81;4983203;28;20659;-28
2021/09/13 10:29:47;;;;;;;4.60;2.25;;;;;;;28.06;37.23;96753.53;4971220;28;20032;-28
2021/09/13 10:32:16;;;;;;;7.28;2.03;;;;;;;28.06;37.23;96750.06;4985347;28;20464;-29
2021/09/13 10:34:42;;;;;;;5.57;2.00;;;;;;;28.06;37.30;96761.44;4989299;28;20027;-28
2021/09/13 10:37:15;;;;;;;3.75;1.80;;;;;;;28.06;37.24;96753.53;4987872;28;20080;-29
2021/09/13 10:39:53;;;;;;;3.10;2.00;;;;;;;28.08;37.27;96753.44;4991117;28;20026;-28
2021/09/13 10:42:41;;;;;;;3.70;2.00;;;;;;;28.09;37.27;96747.22;4989047;28;20026;-30
2021/09/13 10:45:35;;;;;;;2.83;1.92;;;;;;;28.09;37.47;96742.81;4986871;28;20140;-27
2021/09/13 10:48:03;;;;;;;4.32;2.30;;;;;;;28.10;37.12;96743.66;4985555;28;20377;-32
2021/09/13 10:50:54;;;;;;;3.72;1.85;;;;;;;28.10;37.35;96731.31;4988748;28;20389;-29
2021/09/13 10:53:19;;;;;;;4.20;2.05;;;;;;;28.11;37.21;96738.25;4989030;28;20136;-33
2021/09/13 10:55:49;;;;;;;5.00;1.83;;;;;;;28.12;37.30;96736.50;4988639;28;20101;-28
2021/09/13 10:58:39;;;;;;;3.17;1.80;;;;;;;28.13;37.38;96740.81;4985187;28;20557;-34
2021/09/13 11:01:06;;;;;;;4.72;1.90;;;;;;;28.14;37.22;96726.69;4985259;28;20546;-29
2021/09/13 11:03:33;;;;;;;2.92;2.00;;;;;;;28.13;37.39;96720.59;4985637;28;20033;-30
2021/09/13 11:09:06;;;;;;;3.20;1.92;;;;;;;28.15;37.37;96723.97;4991044;28;20084;-28
2021/09/13 11:11:41;;;;;;;2.92;1.80;;;;;;;28.15;37.30;96720.50;4960471;28;20042;-29
2021/09/13 11:14:18;;;;;;;3.92;1.92;;;;;;;28.17;37.35;96715.97;4979788;28;20165;-31
2021/09/13 11:16:50;;;;;;;3.15;2.00;;;;;;;28.16;37.49;96719.53;4986843;28;20026;-28
2021/09/13 11:19:16;;;;;;;2.72;1.83;;;;;;;28.18;37.42;96718.50;4987019;28;20104;-28
2021/09/13 11:21:52;;;;;;;9.55;2.03;;;;;;;28.19;37.38;96719.34;4984532;28;20053;-29
2021/09/13 11:24:19;;;;;;;4.30;1.92;;;;;;;28.20;37.54;96715.78;4983728;28;20432;-29
2021/09/13 11:26:53;;;;;;;4.28;1.70;;;;;;;28.21;37.47;96706.06;4982109;28;20030;-35
2021/09/13 11:29:29;;;;;;;4.57;1.98;;;;;;;28.23;37.39;96709.47;4984749;28;20030;-28
2021/09/13 11:32:05;;;;;;;3.53;1.52;;;;;;;28.23;37.37;96706.81;4983349;28;20035;-29
2021/09/13 11:34:50;;;;;;;2.20;1.52;;;;;;;28.24;37.51;96706.72;4987509;28;20041;-29
2021/09/13 11:37:23;;;;;;;2.97;1.52;;;;;;;28.24;37.57;96705.88;4981878;28;20508;-27
2021/09/13 11:39:51;;;;;;;3.50;1.77;;;;;;;28.24;37.53;96698.81;4986681;28;20489;-29